Barachois, Canada
Current Conditions -  °F | °C
As of 6:00 PM on Friday 28 Nov 2014 (Local Time) from CYGP Reporting Station
Light Snow Light Snow  
Wind Chill: 13°   Ceiling: 2300
Heat Index: 19°   Visibility: 10mi
Dew Point: 14°   Wind: 5mph
Humidity: 80%   Direction: 310°NW
Pressure: 30.02"   Gusts: NA
Location:  48.62°N, 64.28°W
Report Text: CYGP 282300Z 31004KT 10SM -SN OVC023 M07/M10 A3002 RMK SC8 SLP168
Loading
Personal Weather Stations






























Interactive Weather Map New forecast layout! Learn more

10-Day Weather Forecast

Advertisements
Track Severe Weather on mobile